sensor_id;sensor_type;location;lat;lon;timestamp;pressure;altitude;pressure_sealevel;temperature
69857;BMP280;57147;53.582;10.112;2024-03-02T00:04:50;100274.03;;;9.32
69857;BMP280;57147;53.582;10.112;2024-03-02T00:09:53;100255.97;;;9.20
69857;BMP280;57147;53.582;10.112;2024-03-02T00:14:54;100264.59;;;9.26
69857;BMP280;57147;53.582;10.112;2024-03-02T00:19:54;100266.75;;;9.24
69857;BMP280;57147;53.582;10.112;2024-03-02T00:24:55;100261.78;;;9.22
69857;BMP280;57147;53.582;10.112;2024-03-02T00:29:55;100235.75;;;9.10
69857;BMP280;57147;53.582;10.112;2024-03-02T00:34:55;100236.16;;;9.18
69857;BMP280;57147;53.582;10.112;2024-03-02T00:39:56;100213.09;;;9.04
69857;BMP280;57147;53.582;10.112;2024-03-02T00:44:56;100218.88;;;9.06
69857;BMP280;57147;53.582;10.112;2024-03-02T00:49:56;100201.31;;;8.97
69857;BMP280;57147;53.582;10.112;2024-03-02T00:54:57;100171.75;;;8.76
69857;BMP280;57147;53.582;10.112;2024-03-02T00:59:57;100210.75;;;9.03
69857;BMP280;57147;53.582;10.112;2024-03-02T01:04:57;100219.84;;;8.97
69857;BMP280;57147;53.582;10.112;2024-03-02T01:09:58;100223.28;;;8.97
69857;BMP280;57147;53.582;10.112;2024-03-02T01:14:58;100228.06;;;8.95
69857;BMP280;57147;53.582;10.112;2024-03-02T01:19:58;100216.84;;;8.85
69857;BMP280;57147;53.582;10.112;2024-03-02T01:24:58;100218.66;;;8.89
69857;BMP280;57147;53.582;10.112;2024-03-02T01:29:59;100201.94;;;8.75
69857;BMP280;57147;53.582;10.112;2024-03-02T01:34:59;100222.84;;;8.90
69857;BMP280;57147;53.582;10.112;2024-03-02T01:39:59;100194.50;;;8.77
69857;BMP280;57147;53.582;10.112;2024-03-02T01:45:00;100200.56;;;8.78
69857;BMP280;57147;53.582;10.112;2024-03-02T01:50:00;100145.84;;;8.41
69857;BMP280;57147;53.582;10.112;2024-03-02T01:55:01;100190.84;;;8.73
69857;BMP280;57147;53.582;10.112;2024-03-02T02:00:01;100188.97;;;8.73
69857;BMP280;57147;53.582;10.112;2024-03-02T02:05:01;100203.50;;;8.76
69857;BMP280;57147;53.582;10.112;2024-03-02T02:10:02;100185.06;;;8.71
69857;BMP280;57147;53.582;10.112;2024-03-02T02:15:03;100172.41;;;8.68
69857;BMP280;57147;53.582;10.112;2024-03-02T02:20:04;100191.34;;;8.75
69857;BMP280;57147;53.582;10.112;2024-03-02T02:25:04;100121.81;;;8.37
69857;BMP280;57147;53.582;10.112;2024-03-02T02:30:05;100167.69;;;8.65
69857;BMP280;57147;53.582;10.112;2024-03-02T02:35:06;100164.97;;;8.70
69857;BMP280;57147;53.582;10.112;2024-03-02T02:40:07;100159.97;;;8.68
69857;BMP280;57147;53.582;10.112;2024-03-02T02:45:07;100159.97;;;8.68
69857;BMP280;57147;53.582;10.112;2024-03-02T02:50:08;100148.38;;;8.64
69857;BMP280;57147;53.582;10.112;2024-03-02T02:55:10;100144.94;;;8.64
69857;BMP280;57147;53.582;10.112;2024-03-02T03:00:12;100135.44;;;8.63
69857;BMP280;57147;53.582;10.112;2024-03-02T03:05:14;100132.31;;;8.61
69857;BMP280;57147;53.582;10.112;2024-03-02T03:10:14;100129.72;;;8.56
69857;BMP280;57147;53.582;10.112;2024-03-02T03:15:15;100104.41;;;8.36
69857;BMP280;57147;53.582;10.112;2024-03-02T03:20:15;100141.41;;;8.55
69857;BMP280;57147;53.582;10.112;2024-03-02T03:25:15;100141.69;;;8.53
69857;BMP280;57147;53.582;10.112;2024-03-02T03:30:16;100156.78;;;8.53
69857;BMP280;57147;53.582;10.112;2024-03-02T03:35:16;100144.41;;;8.48
69857;BMP280;57147;53.582;10.112;2024-03-02T03:40:16;100147.25;;;8.52
69857;BMP280;57147;53.582;10.112;2024-03-02T03:45:16;100146.97;;;8.53
69857;BMP280;57147;53.582;10.112;2024-03-02T03:50:17;100152.56;;;8.52
69857;BMP280;57147;53.582;10.112;2024-03-02T03:55:17;100146.75;;;8.50
69857;BMP280;57147;53.582;10.112;2024-03-02T04:00:17;100072.94;;;8.02
69857;BMP280;57147;53.582;10.112;2024-03-02T04:05:18;100140.97;;;8.48
69857;BMP280;57147;53.582;10.112;2024-03-02T04:10:18;100139.91;;;8.49
69857;BMP280;57147;53.582;10.112;2024-03-02T04:15:20;100128.91;;;8.42
69857;BMP280;57147;53.582;10.112;2024-03-02T04:20:20;100138.59;;;8.46
69857;BMP280;57147;53.582;10.112;2024-03-02T04:25:20;100144.91;;;8.50
69857;BMP280;57147;53.582;10.112;2024-03-02T04:30:21;100151.03;;;8.46
69857;BMP280;57147;53.582;10.112;2024-03-02T04:35:21;100142.63;;;8.44
69857;BMP280;57147;53.582;10.112;2024-03-02T04:40:21;100122.59;;;8.24
69857;BMP280;57147;53.582;10.112;2024-03-02T04:45:21;100141.44;;;8.36
69857;BMP280;57147;53.582;10.112;2024-03-02T04:50:22;100152.72;;;8.42
69857;BMP280;57147;53.582;10.112;2024-03-02T04:55:22;100146.50;;;8.32
69857;BMP280;57147;53.582;10.112;2024-03-02T05:00:22;100154.94;;;8.34
69857;BMP280;57147;53.582;10.112;2024-03-02T05:05:22;100112.53;;;8.07
69857;BMP280;57147;53.582;10.112;2024-03-02T05:10:23;100161.00;;;8.35
69857;BMP280;57147;53.582;10.112;2024-03-02T05:15:23;100151.97;;;8.22
69857;BMP280;57147;53.582;10.112;2024-03-02T05:20:23;100167.66;;;8.32
69857;BMP280;57147;53.582;10.112;2024-03-02T05:25:24;100165.22;;;8.36
69857;BMP280;57147;53.582;10.112;2024-03-02T05:30:24;100159.44;;;8.34
69857;BMP280;57147;53.582;10.112;2024-03-02T05:35:24;100166.91;;;8.32
69857;BMP280;57147;53.582;10.112;2024-03-02T05:40:24;100173.44;;;8.34
69857;BMP280;57147;53.582;10.112;2024-03-02T05:45:25;100172.94;;;8.32
69857;BMP280;57147;53.582;10.112;2024-03-02T05:50:25;100183.53;;;8.32
69857;BMP280;57147;53.582;10.112;2024-03-02T05:55:25;100164.09;;;8.23
69857;BMP280;57147;53.582;10.112;2024-03-02T06:00:26;100161.97;;;8.25
69857;BMP280;57147;53.582;10.112;2024-03-02T06:05:27;100167.25;;;8.25
69857;BMP280;57147;53.582;10.112;2024-03-02T06:10:29;100164.09;;;8.23
69857;BMP280;57147;53.582;10.112;2024-03-02T06:15:29;100170.47;;;8.22
69857;BMP280;57147;53.582;10.112;2024-03-02T06:20:30;100178.41;;;8.22
69857;BMP280;57147;53.582;10.112;2024-03-02T06:25:30;100177.84;;;8.25
69857;BMP280;57147;53.582;10.112;2024-03-02T06:30:33;100178.41;;;8.22
69857;BMP280;57147;53.582;10.112;2024-03-02T06:35:33;100179.75;;;8.20
69857;BMP280;57147;53.582;10.112;2024-03-02T06:40:33;100188.97;;;8.22
69857;BMP280;57147;53.582;10.112;2024-03-02T06:45:34;100188.41;;;8.25
69857;BMP280;57147;53.582;10.112;2024-03-02T06:50:34;100184.84;;;8.16
69857;BMP280;57147;53.582;10.112;2024-03-02T06:55:34;100179.56;;;8.16
69857;BMP280;57147;53.582;10.112;2024-03-02T07:00:34;100196.63;;;8.24
69857;BMP280;57147;53.582;10.112;2024-03-02T07:05:35;100186.34;;;8.22
69857;BMP280;57147;53.582;10.112;2024-03-02T07:10:35;100195.84;;;8.23
69857;BMP280;57147;53.582;10.112;2024-03-02T07:15:35;100200.06;;;8.24
69857;BMP280;57147;53.582;10.112;2024-03-02T07:20:36;100192.56;;;8.31
69857;BMP280;57147;53.582;10.112;2024-03-02T07:25:36;100218.41;;;8.34
69857;BMP280;57147;53.582;10.112;2024-03-02T07:30:36;100230.75;;;8.39
69857;BMP280;57147;53.582;10.112;2024-03-02T07:35:36;100230.06;;;8.33
69857;BMP280;57147;53.582;10.112;2024-03-02T07:40:37;100239.13;;;8.46
69857;BMP280;57147;53.582;10.112;2024-03-02T07:45:37;100255.88;;;8.60
69857;BMP280;57147;53.582;10.112;2024-03-02T07:50:37;100257.38;;;8.66
69857;BMP280;57147;53.582;10.112;2024-03-02T07:55:38;100265.25;;;8.71
69857;BMP280;57147;53.582;10.112;2024-03-02T08:00:39;100262.28;;;8.73
69857;BMP280;57147;53.582;10.112;2024-03-02T08:05:40;100275.97;;;8.80
69857;BMP280;57147;53.582;10.112;2024-03-02T08:10:40;100286.97;;;8.87
69857;BMP280;57147;53.582;10.112;2024-03-02T08:15:40;100291.41;;;8.92
69857;BMP280;57147;53.582;10.112;2024-03-02T08:20:41;100282.38;;;8.93
69857;BMP280;57147;53.582;10.112;2024-03-02T08:25:42;100286.22;;;9.00
69857;BMP280;57147;53.582;10.112;2024-03-02T08:30:42;100307.19;;;9.15
69857;BMP280;57147;53.582;10.112;2024-03-02T08:35:42;100316.09;;;9.20
69857;BMP280;57147;53.582;10.112;2024-03-02T08:40:44;100321.81;;;9.27
69857;BMP280;57147;53.582;10.112;2024-03-02T08:45:45;100319.56;;;9.34
69857;BMP280;57147;53.582;10.112;2024-03-02T08:50:46;100325.88;;;9.38
69857;BMP280;57147;53.582;10.112;2024-03-02T08:55:46;100333.34;;;9.49
69857;BMP280;57147;53.582;10.112;2024-03-02T09:00:47;100329.25;;;9.57
69857;BMP280;57147;53.582;10.112;2024-03-02T09:05:47;100330.81;;;9.58
69857;BMP280;57147;53.582;10.112;2024-03-02T09:10:48;100331.59;;;9.59
69857;BMP280;57147;53.582;10.112;2024-03-02T09:15:48;100346.16;;;9.61
69857;BMP280;57147;53.582;10.112;2024-03-02T09:20:48;100348.63;;;9.71
69857;BMP280;57147;53.582;10.112;2024-03-02T09:25:49;100336.75;;;9.82
69857;BMP280;57147;53.582;10.112;2024-03-02T09:30:49;100291.34;;;9.57
69857;BMP280;57147;53.582;10.112;2024-03-02T09:35:49;100340.56;;;10.04
69857;BMP280;57147;53.582;10.112;2024-03-02T09:40:50;100347.91;;;10.20
69857;BMP280;57147;53.582;10.112;2024-03-02T09:45:50;100312.97;;;10.05
69857;BMP280;57147;53.582;10.112;2024-03-02T09:50:51;100359.31;;;10.21
69857;BMP280;57147;53.582;10.112;2024-03-02T09:55:51;100363.94;;;10.29
69857;BMP280;57147;53.582;10.112;2024-03-02T10:00:51;100344.16;;;10.35
69857;BMP280;57147;53.582;10.112;2024-03-02T10:05:52;100343.75;;;10.42
69857;BMP280;57147;53.582;10.112;2024-03-02T10:10:52;100352.56;;;10.64
69857;BMP280;57147;53.582;10.112;2024-03-02T10:15:53;100338.22;;;10.65
69857;BMP280;57147;53.582;10.112;2024-03-02T10:20:53;100354.50;;;10.72
69857;BMP280;57147;53.582;10.112;2024-03-02T10:25:53;100358.41;;;10.89
69857;BMP280;57147;53.582;10.112;2024-03-02T10:30:54;100377.00;;;11.11
69857;BMP280;57147;53.582;10.112;2024-03-02T10:35:54;100380.84;;;11.27
69857;BMP280;57147;53.582;10.112;2024-03-02T10:40:56;100366.09;;;11.43
69857;BMP280;57147;53.582;10.112;2024-03-02T10:45:57;100361.00;;;11.56
69857;BMP280;57147;53.582;10.112;2024-03-02T10:50:58;100366.31;;;11.56
69857;BMP280;57147;53.582;10.112;2024-03-02T10:55:59;100350.50;;;11.50
69857;BMP280;57147;53.582;10.112;2024-03-02T11:01:03;100339.56;;;11.52
69857;BMP280;57147;53.582;10.112;2024-03-02T11:06:07;100377.06;;;11.90
69857;BMP280;57147;53.582;10.112;2024-03-02T11:11:15;100384.81;;;12.09
69857;BMP280;57147;53.582;10.112;2024-03-02T11:16:30;100390.31;;;12.21
69857;BMP280;57147;53.582;10.112;2024-03-02T11:21:33;100393.16;;;12.24
69857;BMP280;57147;53.582;10.112;2024-03-02T11:26:38;100371.34;;;12.05
69857;BMP280;57147;53.582;10.112;2024-03-02T11:32:00;100390.63;;;12.19
69857;BMP280;57147;53.582;10.112;2024-03-02T11:37:03;100372.28;;;12.09
69857;BMP280;57147;53.582;10.112;2024-03-02T11:42:06;100376.22;;;12.20
69857;BMP280;57147;53.582;10.112;2024-03-02T11:47:08;100401.31;;;12.37
69857;BMP280;57147;53.582;10.112;2024-03-02T11:52:11;100388.50;;;12.39
69857;BMP280;57147;53.582;10.112;2024-03-02T11:57:12;100389.44;;;12.43
69857;BMP280;57147;53.582;10.112;2024-03-02T12:02:15;100380.34;;;12.44
69857;BMP280;57147;53.582;10.112;2024-03-02T12:07:20;100392.56;;;12.53
69857;BMP280;57147;53.582;10.112;2024-03-02T12:12:21;100398.81;;;12.66
69857;BMP280;57147;53.582;10.112;2024-03-02T12:17:22;100388.34;;;12.61
69857;BMP280;57147;53.582;10.112;2024-03-02T12:22:22;100391.50;;;12.63
69857;BMP280;57147;53.582;10.112;2024-03-02T12:27:23;100374.91;;;12.57
69857;BMP280;57147;53.582;10.112;2024-03-02T12:32:23;100369.72;;;12.61
69857;BMP280;57147;53.582;10.112;2024-03-02T12:37:24;100369.06;;;12.64
69857;BMP280;57147;53.582;10.112;2024-03-02T12:42:24;100379.72;;;12.81
69857;BMP280;57147;53.582;10.112;2024-03-02T12:47:24;100382.22;;;12.86
69857;BMP280;57147;53.582;10.112;2024-03-02T12:52:25;100368.88;;;12.95
69857;BMP280;57147;53.582;10.112;2024-03-02T12:57:26;100380.63;;;13.02
69857;BMP280;57147;53.582;10.112;2024-03-02T13:02:31;100384.56;;;13.05
69857;BMP280;57147;53.582;10.112;2024-03-02T13:07:31;100369.06;;;12.98
69857;BMP280;57147;53.582;10.112;2024-03-02T13:12:31;100375.63;;;13.09
69857;BMP280;57147;53.582;10.112;2024-03-02T13:17:34;100368.41;;;13.18
69857;BMP280;57147;53.582;10.112;2024-03-02T13:22:35;100372.00;;;13.23
69857;BMP280;57147;53.582;10.112;2024-03-02T13:27:35;100364.00;;;13.23
69857;BMP280;57147;53.582;10.112;2024-03-02T13:32:36;100349.63;;;13.06
69857;BMP280;57147;53.582;10.112;2024-03-02T13:37:36;100366.50;;;13.28
69857;BMP280;57147;53.582;10.112;2024-03-02T13:42:36;100342.06;;;13.08
69857;BMP280;57147;53.582;10.112;2024-03-02T13:47:37;100360.69;;;13.26
69857;BMP280;57147;53.582;10.112;2024-03-02T13:52:37;100350.84;;;13.17
69857;BMP280;57147;53.582;10.112;2024-03-02T13:57:37;100349.44;;;13.11
69857;BMP280;57147;53.582;10.112;2024-03-02T14:02:39;100357.88;;;13.22
69857;BMP280;57147;53.582;10.112;2024-03-02T14:07:40;100353.75;;;13.42
69857;BMP280;57147;53.582;10.112;2024-03-02T14:12:41;100356.69;;;13.78
69857;BMP280;57147;53.582;10.112;2024-03-02T14:17:41;100349.34;;;14.05
69857;BMP280;57147;53.582;10.112;2024-03-02T14:22:41;100355.59;;;14.29
69857;BMP280;57147;53.582;10.112;2024-03-02T14:27:42;100343.84;;;14.42
69857;BMP280;57147;53.582;10.112;2024-03-02T14:32:42;100345.09;;;14.66
69857;BMP280;57147;53.582;10.112;2024-03-02T14:37:42;100344.94;;;14.95
69857;BMP280;57147;53.582;10.112;2024-03-02T14:42:43;100351.13;;;15.08
69857;BMP280;57147;53.582;10.112;2024-03-02T14:47:43;100341.72;;;15.02
69857;BMP280;57147;53.582;10.112;2024-03-02T14:52:44;100338.59;;;14.87
69857;BMP280;57147;53.582;10.112;2024-03-02T14:57:46;100332.16;;;14.68
69857;BMP280;57147;53.582;10.112;2024-03-02T15:02:46;100343.84;;;14.63
69857;BMP280;57147;53.582;10.112;2024-03-02T15:07:46;100345.19;;;14.69
69857;BMP280;57147;53.582;10.112;2024-03-02T15:12:47;100339.34;;;14.55
69857;BMP280;57147;53.582;10.112;2024-03-02T15:17:47;100321.66;;;14.30
69857;BMP280;57147;53.582;10.112;2024-03-02T15:22:47;100334.31;;;14.21
69857;BMP280;57147;53.582;10.112;2024-03-02T15:27:48;100338.19;;;14.02
69857;BMP280;57147;53.582;10.112;2024-03-02T15:32:48;100337.00;;;13.91
69857;BMP280;57147;53.582;10.112;2024-03-02T15:37:48;100346.13;;;13.90
69857;BMP280;57147;53.582;10.112;2024-03-02T15:42:48;100360.94;;;13.79
69857;BMP280;57147;53.582;10.112;2024-03-02T15:47:49;100353.91;;;13.66
69857;BMP280;57147;53.582;10.112;2024-03-02T15:52:49;100362.28;;;13.56
69857;BMP280;57147;53.582;10.112;2024-03-02T15:57:49;100361.28;;;13.40
69857;BMP280;57147;53.582;10.112;2024-03-02T16:02:50;100352.06;;;13.29
69857;BMP280;57147;53.582;10.112;2024-03-02T16:07:50;100350.19;;;13.21
69857;BMP280;57147;53.582;10.112;2024-03-02T16:12:50;100348.66;;;13.02
69857;BMP280;57147;53.582;10.112;2024-03-02T16:17:51;100351.00;;;12.95
69857;BMP280;57147;53.582;10.112;2024-03-02T16:22:51;100338.81;;;12.77
69857;BMP280;57147;53.582;10.112;2024-03-02T16:27:51;100361.25;;;12.76
69857;BMP280;57147;53.582;10.112;2024-03-02T16:32:52;100346.50;;;12.70
69857;BMP280;57147;53.582;10.112;2024-03-02T16:37:52;100360.63;;;12.62
69857;BMP280;57147;53.582;10.112;2024-03-02T16:42:52;100360.94;;;12.52
69857;BMP280;57147;53.582;10.112;2024-03-02T16:47:53;100363.13;;;12.41
69857;BMP280;57147;53.582;10.112;2024-03-02T16:52:53;100369.38;;;12.37
69857;BMP280;57147;53.582;10.112;2024-03-02T16:57:53;100362.00;;;12.25
69857;BMP280;57147;53.582;10.112;2024-03-02T17:02:54;100364.94;;;12.06
69857;BMP280;57147;53.582;10.112;2024-03-02T17:07:54;100372.88;;;11.98
69857;BMP280;57147;53.582;10.112;2024-03-02T17:12:54;100381.13;;;11.87
69857;BMP280;57147;53.582;10.112;2024-03-02T17:17:54;100380.16;;;11.75
69857;BMP280;57147;53.582;10.112;2024-03-02T17:22:55;100394.38;;;11.70
69857;BMP280;57147;53.582;10.112;2024-03-02T17:28:21;100385.41;;;11.58
69857;BMP280;57147;53.582;10.112;2024-03-02T17:33:21;100388.78;;;11.49
69857;BMP280;57147;53.582;10.112;2024-03-02T17:38:22;100376.22;;;11.41
69857;BMP280;57147;53.582;10.112;2024-03-02T17:43:22;100386.50;;;11.34
69857;BMP280;57147;53.582;10.112;2024-03-02T17:48:22;100380.38;;;11.25
69857;BMP280;57147;53.582;10.112;2024-03-02T17:53:23;100393.16;;;11.23
69857;BMP280;57147;53.582;10.112;2024-03-02T17:58:23;100398.59;;;11.18
69857;BMP280;57147;53.582;10.112;2024-03-02T18:03:23;100388.19;;;11.08
69857;BMP280;57147;53.582;10.112;2024-03-02T18:08:24;100393.94;;;11.01
69857;BMP280;57147;53.582;10.112;2024-03-02T18:13:24;100400.63;;;10.99
69857;BMP280;57147;53.582;10.112;2024-03-02T18:18:24;100402.63;;;10.93
69857;BMP280;57147;53.582;10.112;2024-03-02T18:23:24;100396.97;;;10.86
69857;BMP280;57147;53.582;10.112;2024-03-02T18:28:25;100403.28;;;10.77
69857;BMP280;57147;53.582;10.112;2024-03-02T18:33:25;100404.47;;;10.70
69857;BMP280;57147;53.582;10.112;2024-03-02T18:38:25;100400.34;;;10.64
69857;BMP280;57147;53.582;10.112;2024-03-02T18:43:25;100403.91;;;10.60
69857;BMP280;57147;53.582;10.112;2024-03-02T18:48:26;100398.00;;;10.49
69857;BMP280;57147;53.582;10.112;2024-03-02T18:53:26;100407.66;;;10.45
69857;BMP280;57147;53.582;10.112;2024-03-02T18:58:26;100381.53;;;10.25
69857;BMP280;57147;53.582;10.112;2024-03-02T19:03:26;100404.69;;;10.33
69857;BMP280;57147;53.582;10.112;2024-03-02T19:08:27;100405.31;;;10.30
69857;BMP280;57147;53.582;10.112;2024-03-02T19:13:28;100418.06;;;10.28
69857;BMP280;57147;53.582;10.112;2024-03-02T19:18:28;100413.94;;;10.22
69857;BMP280;57147;53.582;10.112;2024-03-02T19:23:28;100416.72;;;10.17
69857;BMP280;57147;53.582;10.112;2024-03-02T19:28:29;100411.97;;;10.14
69857;BMP280;57147;53.582;10.112;2024-03-02T19:33:29;100416.31;;;10.10
69857;BMP280;57147;53.582;10.112;2024-03-02T19:38:30;100407.66;;;10.04
69857;BMP280;57147;53.582;10.112;2024-03-02T19:43:30;100405.34;;;10.03
69857;BMP280;57147;53.582;10.112;2024-03-02T19:48:31;100411.00;;;9.96
69857;BMP280;57147;53.582;10.112;2024-03-02T19:53:31;100405.28;;;9.89
69857;BMP280;57147;53.582;10.112;2024-03-02T19:58:31;100405.28;;;9.89
69857;BMP280;57147;53.582;10.112;2024-03-02T20:03:31;100393.31;;;9.78
69857;BMP280;57147;53.582;10.112;2024-03-02T20:08:32;100404.09;;;9.81
69857;BMP280;57147;53.582;10.112;2024-03-02T20:13:33;100399.19;;;9.75
69857;BMP280;57147;53.582;10.112;2024-03-02T20:18:35;100403.69;;;9.74
69857;BMP280;57147;53.582;10.112;2024-03-02T20:23:35;100405.78;;;9.77
69857;BMP280;57147;53.582;10.112;2024-03-02T20:28:35;100390.31;;;9.66
69857;BMP280;57147;53.582;10.112;2024-03-02T20:33:36;100395.84;;;9.69
69857;BMP280;57147;53.582;10.112;2024-03-02T20:38:36;100400.34;;;9.69
69857;BMP280;57147;53.582;10.112;2024-03-02T20:43:36;100394.34;;;9.63
69857;BMP280;57147;53.582;10.112;2024-03-02T20:48:36;100390.19;;;9.57
69857;BMP280;57147;53.582;10.112;2024-03-02T20:53:37;100389.88;;;9.45
69857;BMP280;57147;53.582;10.112;2024-03-02T20:58:37;100391.16;;;9.47
69857;BMP280;57147;53.582;10.112;2024-03-02T21:03:37;100394.66;;;9.43
69857;BMP280;57147;53.582;10.112;2024-03-02T21:08:38;100388.38;;;9.39
69857;BMP280;57147;53.582;10.112;2024-03-02T21:13:38;100384.16;;;9.38
69857;BMP280;57147;53.582;10.112;2024-03-02T21:18:38;100391.59;;;9.36
69857;BMP280;57147;53.582;10.112;2024-03-02T21:23:39;100382.38;;;9.33
69857;BMP280;57147;53.582;10.112;2024-03-02T21:28:39;100393.31;;;9.27
69857;BMP280;57147;53.582;10.112;2024-03-02T21:33:39;100394.91;;;9.28
69857;BMP280;57147;53.582;10.112;2024-03-02T21:38:40;100374.03;;;9.07
69857;BMP280;57147;53.582;10.112;2024-03-02T21:43:41;100389.00;;;9.17
69857;BMP280;57147;53.582;10.112;2024-03-02T21:48:41;100382.41;;;9.14
69857;BMP280;57147;53.582;10.112;2024-03-02T21:53:41;100386.63;;;9.15
69857;BMP280;57147;53.582;10.112;2024-03-02T21:58:41;100387.78;;;9.09
69857;BMP280;57147;53.582;10.112;2024-03-02T22:03:42;100380.72;;;9.05
69857;BMP280;57147;53.582;10.112;2024-03-02T22:08:42;100370.78;;;8.97
69857;BMP280;57147;53.582;10.112;2024-03-02T22:13:42;100362.59;;;8.93
69857;BMP280;57147;53.582;10.112;2024-03-02T22:18:43;100363.16;;;8.90
69857;BMP280;57147;53.582;10.112;2024-03-02T22:23:43;100362.16;;;8.86
69857;BMP280;57147;53.582;10.112;2024-03-02T22:28:43;100347.44;;;8.80
69857;BMP280;57147;53.582;10.112;2024-03-02T22:33:44;100348.56;;;8.74
69857;BMP280;57147;53.582;10.112;2024-03-02T22:38:44;100333.31;;;8.66
69857;BMP280;57147;53.582;10.112;2024-03-02T22:43:44;100320.22;;;8.56
69857;BMP280;57147;53.582;10.112;2024-03-02T22:48:44;100313.44;;;8.50
69857;BMP280;57147;53.582;10.112;2024-03-02T22:53:45;100317.53;;;8.61
69857;BMP280;57147;53.582;10.112;2024-03-02T22:58:45;100325.50;;;8.56
69857;BMP280;57147;53.582;10.112;2024-03-02T23:03:45;100320.03;;;8.52
69857;BMP280;57147;53.582;10.112;2024-03-02T23:08:46;100325.94;;;8.44
69857;BMP280;57147;53.582;10.112;2024-03-02T23:13:46;100320.16;;;8.42
69857;BMP280;57147;53.582;10.112;2024-03-02T23:18:46;100313.63;;;8.34
69857;BMP280;57147;53.582;10.112;2024-03-02T23:23:47;100312.38;;;8.32
69857;BMP280;57147;53.582;10.112;2024-03-02T23:28:47;100319.97;;;8.33
69857;BMP280;57147;53.582;10.112;2024-03-02T23:33:47;100324.78;;;8.31
69857;BMP280;57147;53.582;10.112;2024-03-02T23:38:48;100318.50;;;8.27
69857;BMP280;57147;53.582;10.112;2024-03-02T23:43:48;100317.41;;;8.28
69857;BMP280;57147;53.582;10.112;2024-03-02T23:48:48;100311.41;;;8.23
69857;BMP280;57147;53.582;10.112;2024-03-02T23:53:49;100314.13;;;8.18
69857;BMP280;57147;53.582;10.112;2024-03-02T23:58:49;100306.47;;;8.16
